Time;durP1;ratioP1;P1;durP2;ratioP2;P2;SDS_P1;SDS_P2;PMS_P1;PMS_P2;Temp;Humidity;BMP_temperature;BMP_pressure;BME280_temperature;BME280_humidity;BME280_pressure;Samples;Min_cycle;Max_cycle;Signal;HPM_P1;HPM_P2
2021/10/16 00:01:49;;;;;;;;;12.00;10.75;;;;;14.72;62.68;101290.63;4920543;28;46040;-84
2021/10/16 00:04:33;;;;;;;;;11.50;11.00;;;;;14.83;62.24;101311.75;4936841;28;45663;-86
2021/10/16 00:07:45;;;;;;;;;9.00;9.00;;;;;14.89;62.73;101322.66;4935511;28;47908;-86
2021/10/16 00:13:37;;;;;;;;;9.50;9.25;;;;;14.77;62.46;101306.94;4860759;29;45819;-85
2021/10/16 00:16:05;;;;;;;;;10.00;8.75;;;;;14.70;62.70;101298.66;4844457;29;46450;-85
2021/10/16 00:18:33;;;;;;;;;10.75;8.00;;;;;14.89;62.61;101340.28;4859856;29;46223;-85
2021/10/16 00:21:00;;;;;;;;;10.25;9.00;;;;;15.17;62.58;101383.84;4844656;29;45859;-84
2021/10/16 00:23:38;;;;;;;;;13.25;9.50;;;;;15.15;62.27;101378.69;4861106;29;45774;-86
2021/10/16 00:26:14;;;;;;;;;9.00;9.00;;;;;15.02;62.40;101359.47;4844967;29;47563;-85
2021/10/16 00:28:39;;;;;;;;;10.75;9.00;;;;;14.76;62.46;101321.06;4860262;29;48104;-85
2021/10/16 00:31:05;;;;;;;;;9.25;8.25;;;;;15.14;62.65;101387.56;4861157;29;45558;-85
2021/10/16 00:33:30;;;;;;;;;11.75;10.00;;;;;15.13;62.61;101388.50;4860560;29;45568;-85
2021/10/16 00:35:56;;;;;;;;;9.50;9.00;;;;;14.69;62.43;101312.78;4860479;29;48222;-84
2021/10/16 00:38:21;;;;;;;;;8.25;8.00;;;;;14.80;62.81;101344.47;4885311;28;46581;-85
2021/10/16 00:40:46;;;;;;;;;12.50;9.75;;;;;15.06;62.76;101389.97;4960803;28;46084;-85
2021/10/16 00:43:12;;;;;;;;;10.00;9.25;;;;;14.58;62.62;101310.97;4944494;28;45604;-85
2021/10/16 00:45:46;;;;;;;;;12.25;10.75;;;;;14.62;62.64;101315.09;4959690;28;46795;-85
2021/10/16 00:48:23;;;;;;;;;10.75;10.00;;;;;14.50;62.49;101300.19;5042471;28;47362;-85
2021/10/16 00:50:48;;;;;;;;;11.00;8.75;;;;;14.82;62.59;101355.75;5039628;28;45700;-85
2021/10/16 00:53:16;;;;;;;;;13.25;9.25;;;;;14.69;62.80;101341.81;5034301;28;45925;-84
2021/10/16 00:55:41;;;;;;;;;11.75;10.25;;;;;14.89;62.63;101380.72;5036120;28;46681;-85
2021/10/16 00:58:08;;;;;;;;;10.75;10.50;;;;;14.87;62.74;101385.25;5056226;28;46391;-85
2021/10/16 01:00:36;;;;;;;;;10.25;9.75;;;;;14.85;63.11;101378.41;5037953;28;45818;-85
2021/10/16 01:03:02;;;;;;;;;12.75;11.50;;;;;14.51;62.77;101317.69;5038156;28;45570;-85
2021/10/16 01:05:29;;;;;;;;;13.25;12.00;;;;;14.58;62.95;101337.34;5037979;28;46425;-85
2021/10/16 01:07:55;;;;;;;;;15.00;12.00;;;;;14.56;62.60;101341.06;5037959;28;46392;-85
2021/10/16 01:10:30;;;;;;;;;11.25;10.25;;;;;14.29;63.17;101305.28;5055535;28;45533;-83
2021/10/16 01:16:17;;;;;;;;;11.00;9.00;;;;;14.59;63.05;101340.81;5055454;28;46047;-84
2021/10/16 01:18:44;;;;;;;;;10.75;10.75;;;;;14.79;62.79;101368.34;5037058;28;47155;-85
2021/10/16 01:21:09;;;;;;;;;13.00;10.00;;;;;14.47;62.98;101318.03;5053757;28;46124;-83
2021/10/16 01:23:38;;;;;;;;;8.00;8.00;;;;;14.56;63.30;101330.53;5036992;28;45701;-85
2021/10/16 01:26:05;;;;;;;;;12.00;10.75;;;;;14.65;62.97;101346.47;5036640;28;48330;-85
2021/10/16 01:28:32;;;;;;;;;10.00;9.00;;;;;14.77;62.48;101363.16;5055364;28;45995;-85
2021/10/16 01:30:58;;;;;;;;;13.25;9.75;;;;;14.64;62.96;101338.69;5037199;28;45555;-85
2021/10/16 01:33:27;;;;;;;;;10.00;8.75;;;;;14.48;62.73;101304.72;5037413;28;45522;-86
2021/10/16 01:36:00;;;;;;;;;8.75;8.25;;;;;14.79;63.16;101349.88;5037022;28;48467;-85
2021/10/16 01:38:27;;;;;;;;;10.00;9.25;;;;;14.61;62.82;101323.94;5036812;28;46649;-86
2021/10/16 01:40:52;;;;;;;;;8.50;8.25;;;;;14.81;62.81;101351.41;5036775;28;45892;-85
2021/10/16 01:46:40;;;;;;;;;9.75;9.50;;;;;14.82;63.03;101352.25;5054586;28;46012;-86
2021/10/16 01:49:12;;;;;;;;;8.50;8.50;;;;;14.54;62.49;101312.19;5036434;28;47231;-86
2021/10/16 01:51:39;;;;;;;;;13.25;10.75;;;;;14.61;63.06;101321.31;5054522;28;45690;-85
2021/10/16 01:54:05;;;;;;;;;9.50;9.50;;;;;14.52;63.02;101305.34;5036772;28;46026;-85
2021/10/16 01:56:32;;;;;;;;;9.00;8.50;;;;;14.35;62.71;101276.75;5036435;28;47268;-85
2021/10/16 01:59:16;;;;;;;;;7.75;7.75;;;;;14.53;62.69;101315.75;5036647;28;46149;-86
2021/10/16 02:01:42;;;;;;;;;12.50;10.75;;;;;14.76;62.52;101350.94;5036613;28;46214;-86
2021/10/16 02:04:08;;;;;;;;;10.00;9.00;;;;;14.61;62.86;101320.47;5036899;28;46060;-86
2021/10/16 02:06:43;;;;;;;;;9.25;9.00;;;;;14.52;62.86;101303.53;5036941;28;47424;-86
2021/10/16 02:18:49;;;;;;;;;12.50;11.25;;;;;14.29;62.66;101292.09;4877331;29;45594;-84
2021/10/16 02:21:15;;;;;;;;;10.50;9.50;;;;;14.20;62.99;101261.13;4877587;29;45802;-85
2021/10/16 02:23:43;;;;;;;;;13.75;12.00;;;;;14.47;62.89;101312.75;4877669;29;45869;-88
2021/10/16 02:26:10;;;;;;;;;13.00;8.50;;;;;14.20;62.86;101269.03;4879735;29;45890;-85
2021/10/16 02:28:39;;;;;;;;;9.00;8.75;;;;;14.43;63.08;101301.59;4862985;29;47641;-84
2021/10/16 02:31:05;;;;;;;;;8.00;8.00;;;;;14.00;62.77;101245.16;4861928;29;47001;-87
2021/10/16 02:33:30;;;;;;;;;10.00;9.25;;;;;14.02;62.77;101246.72;4878756;29;45938;-86
2021/10/16 02:36:07;;;;;;;;;9.75;9.25;;;;;14.42;62.92;101320.16;4879637;29;46012;-85
2021/10/16 02:38:35;;;;;;;;;9.00;8.00;;;;;14.02;63.10;101254.63;4885340;29;46525;-84
2021/10/16 02:41:06;;;;;;;;;8.75;8.00;;;;;14.46;62.76;101326.91;4872301;29;46956;-85
2021/10/16 02:43:53;;;;;;;;;12.00;11.00;;;;;14.02;62.90;101259.06;4888300;29;45700;-85
2021/10/16 02:46:19;;;;;;;;;10.00;10.00;;;;;14.14;62.96;101276.59;4887009;29;45545;-87
2021/10/16 02:48:46;;;;;;;;;10.50;10.00;;;;;14.32;62.81;101314.72;5055145;22;45759;-87
2021/10/16 02:51:17;;;;;;;;;10.75;10.50;;;;;14.16;63.26;101287.84;5062199;28;47072;-84
2021/10/16 02:53:52;;;;;;;;;10.25;8.50;;;;;14.23;63.12;101297.81;5077041;28;45751;-87
2021/10/16 02:56:41;;;;;;;;;12.25;10.75;;;;;14.25;62.89;101302.97;5062612;28;45325;-86
2021/10/16 03:02:02;;;;;;;;;11.00;11.00;;;;;14.40;63.21;101336.13;5034139;28;45964;-87
2021/10/16 03:04:39;;;;;;;;;8.50;6.00;;;;;14.40;62.98;101333.50;5014950;28;45728;-87
2021/10/16 03:07:05;;;;;;;;;10.00;9.00;;;;;14.07;63.00;101281.47;5028626;28;45718;-85
2021/10/16 03:09:30;;;;;;;;;9.25;9.25;;;;;14.04;62.85;101260.59;5026965;28;46514;-86
2021/10/16 03:12:01;;;;;;;;;11.00;8.25;;;;;14.32;63.19;101319.16;5030749;28;45808;-86
2021/10/16 03:14:28;;;;;;;;;10.25;9.50;;;;;14.21;62.92;101305.00;5013651;28;45877;-83
2021/10/16 03:16:53;;;;;;;;;10.00;9.00;;;;;14.37;63.13;101314.41;5009819;28;45680;-85
2021/10/16 03:19:22;;;;;;;;;10.75;7.00;;;;;14.10;63.00;101264.56;5001612;28;47578;-86
2021/10/16 03:21:48;;;;;;;;;12.25;8.75;;;;;14.23;62.79;101303.09;5010051;28;48007;-86
2021/10/16 03:24:13;;;;;;;;;9.75;7.75;;;;;14.39;63.14;101329.16;5020228;28;45706;-85
2021/10/16 03:26:40;;;;;;;;;13.75;9.00;;;;;14.19;62.70;101279.72;5011650;28;45861;-84
2021/10/16 03:29:05;;;;;;;;;9.50;9.25;;;;;14.33;63.07;101307.66;5024113;28;45747;-85
2021/10/16 03:31:30;;;;;;;;;8.75;7.75;;;;;14.42;63.25;101320.16;5025688;28;46057;-83
2021/10/16 03:34:17;;;;;;;;;;;;;;;;;;;;;
2021/10/16 03:36:43;;;;;;;;;9.25;9.00;;;;;14.42;63.23;101328.06;4994969;28;68405;-85
2021/10/16 03:39:11;;;;;;;;;9.00;8.00;;;;;14.24;62.86;101296.88;5046392;28;45921;-86
2021/10/16 03:41:42;;;;;;;;;9.25;8.00;;;;;13.92;62.79;101251.00;5049290;28;47821;-83
2021/10/16 03:44:10;;;;;;;;;6.25;5.25;;;;;14.08;62.82;101264.72;5056063;28;45580;-86
2021/10/16 03:46:36;;;;;;;;;8.75;8.75;;;;;14.42;62.85;101322.81;5073416;28;45878;-83
2021/10/16 03:49:01;;;;;;;;;5.00;5.00;;;;;14.28;62.71;101298.31;5056440;28;47535;-85
2021/10/16 03:51:33;;;;;;;;;7.25;6.25;;;;;14.25;62.75;101301.16;5057259;28;46260;-86
2021/10/16 03:54:12;;;;;;;;;;;;;;;;;;;;;
2021/10/16 03:56:48;;;;;;;;;6.00;6.00;;;;;14.37;62.85;101309.97;5074389;28;67696;-88
2021/10/16 03:59:47;;;;;;;;;;;;;;;;;;;;;
2021/10/16 04:02:13;;;;;;;;;9.50;7.00;;;;;14.19;62.68;101291.09;5072938;27;75504;-86
2021/10/16 04:08:15;;;;;;;;;7.00;6.00;;;;;13.84;62.82;101238.41;4973026;28;45875;-87
2021/10/16 04:11:01;;;;;;;;;7.50;7.00;;;;;13.87;62.87;101232.88;4972788;28;48580;-86
2021/10/16 04:13:29;;;;;;;;;8.75;7.50;;;;;13.99;62.69;101270.66;4969474;28;48297;-87
2021/10/16 04:16:12;;;;;;;;;7.00;7.00;;;;;14.35;63.14;101322.41;4955378;28;45855;-87
2021/10/16 04:18:38;;;;;;;;;8.50;7.00;;;;;14.36;62.59;101325.91;4972070;28;45736;-84
2021/10/16 04:21:06;;;;;;;;;10.50;8.00;;;;;13.98;62.25;101268.16;4972017;28;47327;-86
2021/10/16 04:23:34;;;;;;;;;8.00;7.50;;;;;14.02;62.37;101286.25;4972521;28;47232;-84
2021/10/16 04:25:59;;;;;;;;;10.00;9.50;;;;;13.88;62.82;101260.06;4956062;28;45928;-84
2021/10/16 04:28:30;;;;;;;;;9.00;9.00;;;;;13.63;62.40;101218.09;4957532;28;46077;-85
2021/10/16 04:31:22;;;;;;;;;10.25;8.75;;;;;13.78;62.74;101252.03;4956971;28;48529;-86
2021/10/16 04:33:47;;;;;;;;;13.00;11.00;;;;;14.02;62.76;101303.84;4958736;28;46940;-85
2021/10/16 04:36:13;;;;;;;;;12.00;11.75;;;;;14.03;62.78;101309.03;4972817;28;46011;-85
2021/10/16 04:38:45;;;;;;;;;12.50;11.50;;;;;14.04;62.72;101309.81;4956138;28;45698;-87
2021/10/16 04:41:11;;;;;;;;;13.00;12.00;;;;;13.84;62.47;101288.44;4954609;28;47059;-85
2021/10/16 04:43:41;;;;;;;;;14.75;13.00;;;;;13.98;62.90;101316.38;4975420;28;46325;-85
2021/10/16 04:46:07;;;;;;;;;15.00;14.50;;;;;13.82;62.72;101308.78;5054113;28;45736;-84
2021/10/16 04:48:49;;;;;;;;;13.50;12.50;;;;;13.63;62.57;101276.00;5052885;27;45633;-86
2021/10/16 04:51:17;;;;;;;;;14.00;11.50;;;;;13.64;62.98;101281.19;5058890;28;47431;-85
2021/10/16 04:54:38;;;;;;;;;;;;;;;;;;;;;
2021/10/16 04:57:50;;;;;;;;;9.25;9.00;;;;;13.62;62.70;101311.19;5076158;28;72573;-85
2021/10/16 05:04:02;;;;;;;;;12.50;10.25;;;;;13.25;63.27;101266.47;4895965;28;45824;-87
2021/10/16 05:06:39;;;;;;;;;10.00;9.75;;;;;13.20;63.02;101259.84;4837273;29;47344;-86
2021/10/16 05:09:27;;;;;;;;;11.00;10.75;;;;;13.33;63.08;101284.34;4841970;29;46563;-86
2021/10/16 05:11:55;;;;;;;;;11.25;8.75;;;;;13.26;62.96;101281.31;4866629;29;45722;-85
2021/10/16 05:14:29;;;;;;;;;13.00;11.00;;;;;13.44;63.35;101316.81;4838601;29;47630;-86
2021/10/16 05:16:57;;;;;;;;;11.75;9.50;;;;;13.18;63.13;101277.53;4837681;29;47677;-85
2021/10/16 05:19:36;;;;;;;;;8.50;8.50;;;;;13.18;63.26;101290.69;4836980;29;45930;-84
2021/10/16 05:22:11;;;;;;;;;8.25;8.25;;;;;13.04;63.64;101273.22;4839455;29;46027;-84
2021/10/16 05:25:12;;;;;;;;;9.75;9.50;;;;;13.53;63.21;101365.38;4837457;29;45870;-86
2021/10/16 05:27:49;;;;;;;;;8.25;8.25;;;;;13.10;63.27;101307.00;4817337;29;46009;-83
2021/10/16 05:30:45;;;;;;;;;10.25;8.75;;;;;13.45;63.30;101365.06;4813622;29;46204;-84
2021/10/16 05:33:13;;;;;;;;;9.25;8.25;;;;;12.93;63.61;101281.03;4762803;29;45974;-84
2021/10/16 05:36:00;;;;;;;;;9.75;9.00;;;;;12.92;63.33;101269.66;4763375;29;46804;-83
2021/10/16 05:38:34;;;;;;;;;7.00;7.00;;;;;12.93;63.53;101284.50;4791992;29;47592;-83
2021/10/16 05:41:09;;;;;;;;;10.50;8.25;;;;;13.08;63.35;101310.66;4847890;29;46152;-85
2021/10/16 05:43:35;;;;;;;;;9.00;9.00;;;;;13.03;63.60;101303.09;4902688;28;45991;-84
2021/10/16 05:46:01;;;;;;;;;10.75;10.00;;;;;13.01;63.59;101307.63;4922097;28;45716;-84
2021/10/16 05:48:30;;;;;;;;;12.75;11.00;;;;;13.13;63.59;101332.25;4916484;28;47426;-83
2021/10/16 05:50:59;;;;;;;;;10.25;9.00;;;;;13.14;63.59;101334.81;4924170;28;45808;-83
2021/10/16 05:53:24;;;;;;;;;10.00;9.00;;;;;13.17;63.16;101337.19;4916313;28;45961;-84
2021/10/16 05:55:50;;;;;;;;;10.00;8.75;;;;;13.11;63.50;101321.84;4940465;28;46707;-83
2021/10/16 05:58:15;;;;;;;;;9.75;9.50;;;;;13.23;63.58;101346.44;4916323;28;48024;-84
2021/10/16 06:00:46;;;;;;;;;10.25;8.25;;;;;12.88;63.68;101283.16;4929084;28;46286;-85
2021/10/16 06:03:12;;;;;;;;;10.75;8.50;;;;;13.03;63.67;101305.72;4924803;28;45797;-84
2021/10/16 06:05:38;;;;;;;;;9.50;7.25;;;;;13.36;63.65;101356.03;4940720;28;46495;-84
2021/10/16 06:08:04;;;;;;;;;11.75;10.75;;;;;13.41;63.42;101364.44;4935224;28;47627;-84
2021/10/16 06:10:38;;;;;;;;;9.50;7.75;;;;;12.99;63.55;101291.97;4998782;28;45816;-84
2021/10/16 06:16:19;;;;;;;;;11.25;9.25;;;;;13.20;63.50;101309.84;5044184;28;46355;-84
2021/10/16 06:18:45;;;;;;;;;12.50;9.75;;;;;13.11;63.50;101292.91;5039078;28;46351;-83
2021/10/16 06:21:21;;;;;;;;;10.25;8.25;;;;;13.05;63.37;101269.66;5017539;28;45643;-85
2021/10/16 06:23:58;;;;;;;;;8.00;6.25;;;;;13.09;63.53;101278.16;5078666;27;45891;-84
2021/10/16 06:26:32;;;;;;;;;8.50;7.50;;;;;13.28;63.68;101318.06;5027328;28;47320;-86
2021/10/16 06:29:02;;;;;;;;;7.75;6.75;;;;;13.40;63.55;101338.22;5048463;28;46963;-83
2021/10/16 06:31:40;;;;;;;;;12.25;11.00;;;;;13.15;62.95;101290.91;5030103;28;45898;-84
2021/10/16 06:34:07;;;;;;;;;11.25;8.75;;;;;13.56;63.41;101357.22;5050973;28;45995;-83
2021/10/16 06:36:40;;;;;;;;;12.00;9.50;;;;;13.67;63.14;101369.63;5051847;28;46569;-85
2021/10/16 06:39:08;;;;;;;;;13.25;12.00;;;;;13.49;62.97;101340.22;5050263;28;46574;-84
2021/10/16 06:41:50;;;;;;;;;10.50;8.50;;;;;13.28;63.29;101299.63;5028565;28;45890;-85
2021/10/16 06:44:16;;;;;;;;;11.75;11.00;;;;;13.30;63.39;101302.97;5030906;28;46020;-85
2021/10/16 06:46:41;;;;;;;;;10.00;8.25;;;;;13.61;63.10;101347.22;5030412;28;45563;-84
2021/10/16 06:49:07;;;;;;;;;11.00;11.00;;;;;13.68;62.92;101360.78;5040604;28;45683;-76
2021/10/16 06:51:32;;;;;;;;;11.25;9.25;;;;;13.75;62.90;101375.19;5048320;28;45932;-75
2021/10/16 06:53:58;;;;;;;;;8.00;7.00;;;;;13.56;62.82;101341.44;5046085;28;46293;-76
2021/10/16 06:56:23;;;;;;;;;9.75;8.25;;;;;13.65;63.20;101345.22;5045908;28;47590;-76
2021/10/16 06:58:48;;;;;;;;;7.25;7.25;;;;;13.82;63.18;101372.00;5048802;28;45794;-76
2021/10/16 07:01:14;;;;;;;;;7.75;6.75;;;;;13.85;62.78;101368.31;5048584;28;46096;-77
2021/10/16 07:03:39;;;;;;;;;7.00;6.00;;;;;13.68;62.85;101339.72;5048625;28;45898;-77
2021/10/16 07:06:05;;;;;;;;;7.00;6.50;;;;;13.86;63.23;101370.00;5048614;28;46963;-76
2021/10/16 07:08:30;;;;;;;;;8.75;7.00;;;;;13.76;63.07;101354.03;5043295;28;45714;-76
2021/10/16 07:10:56;;;;;;;;;10.00;9.75;;;;;13.88;63.03;101368.06;5039021;28;45865;-76
2021/10/16 07:13:22;;;;;;;;;8.00;7.00;;;;;13.94;62.76;101372.91;5050028;28;46004;-76
2021/10/16 07:15:48;;;;;;;;;11.00;8.00;;;;;13.98;63.01;101382.25;5061758;28;47150;-77
2021/10/16 07:18:13;;;;;;;;;8.25;8.00;;;;;13.83;62.96;101359.66;5075778;28;46305;-76
2021/10/16 07:20:39;;;;;;;;;9.25;8.25;;;;;13.98;62.87;101376.97;5074772;28;45653;-76
2021/10/16 07:23:06;;;;;;;;;9.25;8.25;;;;;14.02;62.96;101385.53;5074940;28;45688;-76
2021/10/16 07:25:31;;;;;;;;;8.00;7.25;;;;;14.07;62.75;101393.94;5074377;28;46021;-77
2021/10/16 07:27:56;;;;;;;;;8.75;8.75;;;;;14.08;62.47;101395.63;5074498;28;45792;-78
2021/10/16 07:30:22;;;;;;;;;9.00;8.00;;;;;14.09;63.04;101398.13;5074455;28;45711;-76
2021/10/16 07:32:48;;;;;;;;;10.00;8.25;;;;;14.08;62.38;101393.00;5073717;28;45829;-75
2021/10/16 07:35:14;;;;;;;;;10.75;8.75;;;;;14.02;62.47;101386.38;5073459;28;46614;-77
2021/10/16 07:37:40;;;;;;;;;11.50;9.25;;;;;13.92;62.69;101366.06;5071850;27;46382;-77
2021/10/16 07:40:06;;;;;;;;;9.50;8.50;;;;;14.13;62.40;101409.31;5072469;28;45764;-77
2021/10/16 07:42:32;;;;;;;;;8.00;7.25;;;;;14.15;62.74;101408.22;5072502;28;45800;-79
2021/10/16 07:44:57;;;;;;;;;8.50;8.00;;;;;14.08;62.42;101391.19;5072923;28;46272;-78
2021/10/16 07:47:26;;;;;;;;;9.00;7.00;;;;;14.19;62.64;101399.16;5073459;28;45846;-80
2021/10/16 07:49:52;;;;;;;;;7.75;7.75;;;;;14.16;62.73;101390.63;5073779;28;46018;-77
2021/10/16 07:52:18;;;;;;;;;9.50;8.50;;;;;14.03;62.23;101364.34;5074399;28;46539;-77
2021/10/16 07:54:43;;;;;;;;;7.00;7.00;;;;;14.17;62.33;101393.16;5073587;28;46247;-77
2021/10/16 07:57:08;;;;;;;;;9.00;8.00;;;;;14.27;62.42;101406.47;5074306;28;46415;-77
2021/10/16 07:59:34;;;;;;;;;8.00;8.00;;;;;14.29;62.27;101410.69;5074192;28;45747;-78
2021/10/16 08:01:59;;;;;;;;;7.25;7.00;;;;;14.32;62.20;101409.63;5074293;28;45650;-77
2021/10/16 08:04:24;;;;;;;;;5.00;5.00;;;;;14.32;62.23;101404.34;5073836;28;46278;-77
2021/10/16 08:06:50;;;;;;;;;8.00;7.00;;;;;14.31;62.23;101402.66;5073767;28;46303;-75
2021/10/16 08:09:15;;;;;;;;;8.00;7.25;;;;;14.28;62.13;101393.19;5073513;28;45777;-79
2021/10/16 08:11:41;;;;;;;;;9.00;9.00;;;;;14.39;61.88;101404.78;5073895;27;45685;-79
2021/10/16 08:14:06;;;;;;;;;7.50;7.00;;;;;14.35;61.90;101404.13;5073748;28;45724;-78
2021/10/16 08:16:31;;;;;;;;;8.50;7.75;;;;;14.27;61.97;101378.34;5073641;28;46391;-78
2021/10/16 08:18:58;;;;;;;;;9.50;8.50;;;;;14.44;62.21;101398.22;5069776;28;45719;-78
2021/10/16 08:21:23;;;;;;;;;8.00;7.00;;;;;14.45;62.11;101407.81;5067863;28;45548;-80
2021/10/16 08:23:49;;;;;;;;;6.50;6.00;;;;;14.48;61.79;101414.63;5072368;28;45607;-76
2021/10/16 08:26:14;;;;;;;;;9.25;8.00;;;;;14.45;61.96;101404.31;5073737;28;45992;-81
2021/10/16 08:28:40;;;;;;;;;8.75;7.75;;;;;14.47;61.89;101405.03;5070761;28;46084;-81
2021/10/16 08:31:05;;;;;;;;;11.00;9.00;;;;;14.47;61.79;101392.69;5071337;28;45664;-77
2021/10/16 08:33:34;;;;;;;;;9.25;6.75;;;;;14.55;61.63;101392.13;5072774;27;45839;-78
2021/10/16 08:36:01;;;;;;;;;8.00;7.75;;;;;14.56;61.79;101402.56;5067815;28;46092;-78
2021/10/16 08:38:26;;;;;;;;;8.75;8.00;;;;;14.58;61.61;101407.72;5066109;28;45718;-79
2021/10/16 08:40:51;;;;;;;;;9.00;8.50;;;;;14.43;61.66;101379.84;5068649;28;45772;-77
2021/10/16 08:43:19;;;;;;;;;12.75;9.25;;;;;14.57;61.33;101412.16;5064625;28;47209;-78
2021/10/16 08:45:45;;;;;;;;;7.00;6.75;;;;;14.45;61.39;101383.22;5064023;28;46310;-79
2021/10/16 08:48:12;;;;;;;;;11.50;9.25;;;;;14.51;61.22;101388.03;5062800;28;45944;-79
2021/10/16 08:50:38;;;;;;;;;9.50;8.50;;;;;14.66;61.28;101408.00;5067560;28;46283;-78
2021/10/16 08:53:03;;;;;;;;;15.00;10.00;;;;;14.69;61.26;101420.94;5060602;28;46329;-79
2021/10/16 08:55:29;;;;;;;;;10.75;9.00;;;;;14.60;61.18;101404.00;5059140;28;46202;-79
2021/10/16 08:57:56;;;;;;;;;9.00;9.00;;;;;14.72;61.38;101420.72;5060041;28;47004;-79
2021/10/16 09:00:49;;;;;;;;;8.25;7.75;;;;;14.74;61.33;101418.78;5062283;27;45865;-81
2021/10/16 09:03:23;;;;;;;;;8.00;8.00;;;;;14.77;61.38;101421.22;5065389;28;46406;-76
2021/10/16 09:06:03;;;;;;;;;7.00;6.75;;;;;14.79;61.15;101435.09;5059984;28;47423;-79
2021/10/16 09:09:00;;;;;;;;;10.00;7.75;;;;;14.81;60.88;101442.91;5064938;28;45849;-79
2021/10/16 09:11:28;;;;;;;;;6.00;6.00;;;;;14.80;60.94;101433.31;5065514;28;45535;-80
2021/10/16 09:14:13;;;;;;;;;8.25;7.75;;;;;14.77;61.04;101423.84;5072468;28;46363;-78
2021/10/16 09:16:55;;;;;;;;;10.50;7.00;;;;;14.83;60.92;101433.94;5075210;28;46309;-78
2021/10/16 09:19:25;;;;;;;;;7.75;7.50;;;;;14.82;60.99;101424.34;5077471;28;45946;-78
2021/10/16 09:22:09;;;;;;;;;8.00;8.00;;;;;14.90;60.73;101435.13;5077280;28;45857;-76
2021/10/16 09:24:38;;;;;;;;;9.25;8.25;;;;;14.93;60.55;101432.28;5078360;28;46494;-78
2021/10/16 09:27:06;;;;;;;;;8.75;7.75;;;;;14.96;60.49;101429.41;5077585;28;46711;-79
2021/10/16 09:29:33;;;;;;;;;10.50;8.00;;;;;14.99;60.69;101431.81;5067186;28;45562;-75
2021/10/16 09:32:01;;;;;;;;;10.25;8.50;;;;;15.00;60.68;101425.59;5070499;28;45728;-76
2021/10/16 09:34:29;;;;;;;;;9.00;8.25;;;;;14.98;60.66;101419.56;5073031;27;46657;-78
2021/10/16 09:37:06;;;;;;;;;10.25;9.50;;;;;15.02;60.40;101410.47;5083805;28;46355;-79
2021/10/16 09:39:34;;;;;;;;;10.00;9.75;;;;;15.12;60.39;101426.41;5063634;28;46118;-78
2021/10/16 09:41:59;;;;;;;;;12.00;10.50;;;;;15.16;60.29;101429.69;5071706;28;45769;-78
2021/10/16 09:44:32;;;;;;;;;11.00;9.25;;;;;15.17;60.46;101420.81;5065896;28;45827;-78
2021/10/16 09:47:12;;;;;;;;;12.75;10.00;;;;;15.21;60.34;101425.72;5057564;28;46143;-82
2021/10/16 09:49:46;;;;;;;;;15.00;12.50;;;;;15.24;60.10;101432.56;5072639;28;45598;-77
2021/10/16 09:52:15;;;;;;;;;11.25;9.50;;;;;15.17;60.32;101418.97;5059200;28;45624;-78
2021/10/16 09:54:42;;;;;;;;;10.25;10.00;;;;;15.30;60.19;101434.72;5071682;28;46066;-79
2021/10/16 09:57:10;;;;;;;;;10.75;9.00;;;;;15.26;60.41;101418.28;5070774;28;47076;-78
2021/10/16 09:59:38;;;;;;;;;12.00;10.25;;;;;15.34;59.94;101430.88;5072683;28;45791;-78
2021/10/16 10:02:05;;;;;;;;;10.75;10.00;;;;;15.36;59.98;101427.19;5070614;28;46449;-77
2021/10/16 10:04:41;;;;;;;;;11.75;11.00;;;;;15.41;59.92;101429.44;5062164;28;46328;-80
2021/10/16 10:07:08;;;;;;;;;12.25;9.25;;;;;15.44;59.83;101421.28;5072311;28;46938;-79
2021/10/16 10:09:38;;;;;;;;;10.50;9.75;;;;;15.47;59.86;101432.47;5068749;28;45854;-77
2021/10/16 10:12:04;;;;;;;;;9.50;9.50;;;;;15.48;59.67;101428.03;5072489;28;45763;-80
2021/10/16 10:14:30;;;;;;;;;9.75;8.75;;;;;15.42;59.65;101410.84;5072164;28;45759;-83
2021/10/16 10:17:04;;;;;;;;;8.75;8.00;;;;;15.53;59.54;101420.59;5072924;28;45507;-83
2021/10/16 10:19:35;;;;;;;;;10.50;10.00;;;;;15.57;59.51;101424.69;5047981;28;45755;-80
2021/10/16 10:22:00;;;;;;;;;12.00;10.75;;;;;15.51;59.50;101410.16;5052953;28;45713;-78
2021/10/16 10:24:37;;;;;;;;;13.00;12.00;;;;;15.63;59.33;101423.34;5072497;28;45690;-79
2021/10/16 10:27:08;;;;;;;;;11.75;10.50;;;;;15.62;59.16;101413.75;5072970;28;46248;-78
2021/10/16 10:29:36;;;;;;;;;8.00;8.00;;;;;15.61;59.08;101396.22;5071981;28;45667;-79
2021/10/16 10:32:04;;;;;;;;;8.50;8.25;;;;;15.67;59.00;101412.41;5072775;28;45716;-81
2021/10/16 10:34:38;;;;;;;;;9.25;7.75;;;;;15.71;58.92;101419.13;5069751;28;47499;-79
2021/10/16 10:37:11;;;;;;;;;11.00;9.75;;;;;15.78;59.08;101419.50;5064626;28;46528;-81
2021/10/16 10:39:43;;;;;;;;;9.25;8.75;;;;;15.82;58.81;101418.28;5052883;28;46563;-80
2021/10/16 10:42:09;;;;;;;;;11.25;9.50;;;;;15.85;58.81;101413.59;5061694;27;47486;-80
2021/10/16 10:44:43;;;;;;;;;8.25;7.00;;;;;15.81;58.70;101404.25;5058912;28;47024;-79
2021/10/16 10:47:32;;;;;;;;;6.50;6.50;;;;;15.93;58.35;101421.75;5064481;28;46070;-79
2021/10/16 10:50:07;;;;;;;;;6.50;6.00;;;;;15.92;58.43;101400.75;5061531;28;45600;-83
2021/10/16 10:53:05;;;;;;;;;7.00;6.00;;;;;16.00;58.30;101414.16;5035903;28;45821;-81
2021/10/16 10:55:48;;;;;;;;;8.75;6.75;;;;;16.01;58.43;101420.28;5070109;28;45732;-80
2021/10/16 10:58:13;;;;;;;;;3.75;3.00;;;;;16.04;57.86;101417.38;5068197;28;46721;-80
2021/10/16 11:00:40;;;;;;;;;3.25;3.00;;;;;15.67;57.67;101350.81;5059234;28;45836;-81
2021/10/16 11:03:35;;;;;;;;;4.75;4.75;;;;;16.13;57.85;101419.31;5074901;28;45821;-80
2021/10/16 11:06:09;;;;;;;;;4.25;4.00;;;;;16.17;57.83;101408.34;5063432;28;45949;-78
2021/10/16 11:08:38;;;;;;;;;4.00;3.25;;;;;16.16;57.94;101398.72;5072537;28;45907;-77
2021/10/16 11:11:04;;;;;;;;;5.00;5.00;;;;;16.21;57.69;101399.19;5072612;28;45826;-78
2021/10/16 11:13:35;;;;;;;;;4.00;4.00;;;;;16.29;57.18;101407.34;5077149;27;45946;-79
2021/10/16 11:16:04;;;;;;;;;5.75;5.00;;;;;16.30;57.18;101395.78;5072640;28;46824;-78
2021/10/16 11:18:29;;;;;;;;;7.75;5.00;;;;;16.25;57.01;101394.47;5071858;28;47146;-80
2021/10/16 11:21:02;;;;;;;;;6.75;6.50;;;;;16.39;56.95;101410.06;5061547;28;45720;-77
2021/10/16 11:23:27;;;;;;;;;9.50;6.75;;;;;16.41;56.87;101410.75;5060927;28;46876;-79
2021/10/16 11:25:57;;;;;;;;;6.25;5.25;;;;;16.45;56.90;101409.56;5069342;28;46492;-80
2021/10/16 11:28:23;;;;;;;;;5.75;5.75;;;;;16.38;56.68;101390.72;5058194;28;46185;-80
2021/10/16 11:30:51;;;;;;;;;6.00;4.75;;;;;16.51;56.55;101406.41;5053569;28;45837;-79
2021/10/16 11:33:19;;;;;;;;;7.75;6.00;;;;;16.53;56.41;101396.53;5053725;28;45674;-80
2021/10/16 11:35:46;;;;;;;;;4.00;3.00;;;;;16.57;56.61;101399.78;5061892;28;45805;-80
2021/10/16 11:38:20;;;;;;;;;4.25;4.00;;;;;16.60;56.65;101395.09;5073400;28;46370;-80
2021/10/16 11:40:46;;;;;;;;;3.00;3.00;;;;;16.64;56.16;101398.31;5074018;28;45681;-80
2021/10/16 11:43:31;;;;;;;;;5.75;5.00;;;;;16.67;56.29;101395.44;5063768;28;45890;-79
2021/10/16 11:45:57;;;;;;;;;6.50;6.00;;;;;16.67;55.97;101393.63;5053425;28;45793;-78
2021/10/16 11:48:25;;;;;;;;;6.00;5.00;;;;;16.65;55.98;101384.97;5067163;28;45990;-79
2021/10/16 11:50:54;;;;;;;;;6.25;5.00;;;;;16.67;55.65;101383.03;5074201;28;46512;-81
2021/10/16 11:53:31;;;;;;;;;7.00;6.00;;;;;16.67;55.59;101371.59;5075262;28;45660;-83
2021/10/16 11:56:00;;;;;;;;;5.25;5.00;;;;;16.75;56.00;101379.72;5076404;28;46755;-86
2021/10/16 11:58:28;;;;;;;;;5.25;5.00;;;;;16.79;55.38;101375.84;5077180;28;46122;-85
2021/10/16 12:00:55;;;;;;;;;7.75;6.75;;;;;16.81;55.53;101365.97;5058023;28;45720;-87
2021/10/16 12:03:44;;;;;;;;;10.75;8.75;;;;;16.84;55.04;101367.53;5071376;28;46436;-85
2021/10/16 12:06:12;;;;;;;;;15.75;15.00;;;;;16.88;55.24;101364.50;4982965;28;46868;-87
2021/10/16 12:08:48;;;;;;;;;6.00;6.00;;;;;16.89;55.28;101357.38;4993420;28;46261;-86
2021/10/16 12:11:27;;;;;;;;;7.00;5.00;;;;;16.94;55.32;101368.41;4986373;28;46431;-87
2021/10/16 12:13:57;;;;;;;;;18.00;14.50;;;;;16.97;54.86;101365.50;4992602;28;45973;-83